Time;durP1;ratioP1;P1;durP2;ratioP2;P2;SDS_P1;SDS_P2;PMS_P1;PMS_P2;Temp;Humidity;BMP_temperature;BMP_pressure;BME280_temperature;BME280_humidity;BME280_pressure;Samples;Min_cycle;Max_cycle;Signal;HPM_P1;HPM_P2
2022/04/03 00:00:13;;;;;;;8.00;4.20;;;;;;;-2.24;65.28;99931.98;84651;1328;24152;-81
2022/04/03 00:02:42;;;;;;;8.30;3.90;;;;;;;-2.22;65.16;99935.06;84628;1329;24217;-77
2022/04/03 00:04:52;;;;;;;9.80;3.90;;;;;;;-2.22;65.12;99937.44;84645;1329;24240;-77
2022/04/03 00:07:02;;;;;;;9.00;4.00;;;;;;;-2.22;65.22;99937.12;84656;1328;22669;-81
2022/04/03 00:09:11;;;;;;;6.60;4.40;;;;;;;-2.22;65.18;99938.65;84650;1330;24094;-81
2022/04/03 00:11:21;;;;;;;7.60;3.90;;;;;;;-2.23;65.35;99937.45;84621;1329;23751;-77
2022/04/03 00:13:30;;;;;;;8.00;4.50;;;;;;;-2.24;65.12;99937.27;84642;1328;26723;-78
2022/04/03 00:15:42;;;;;;;8.30;4.30;;;;;;;-2.26;65.10;99938.45;84632;1327;22590;-77
2022/04/03 00:17:51;;;;;;;8.90;4.50;;;;;;;-2.29;65.20;99936.56;84588;1330;24245;-76
2022/04/03 00:20:02;;;;;;;10.30;4.40;;;;;;;-2.33;65.11;99938.76;84502;1333;23343;-77
2022/04/03 00:22:13;;;;;;;9.10;4.80;;;;;;;-2.37;65.21;99940.26;84633;1332;22590;-81
2022/04/03 00:24:22;;;;;;;7.40;4.30;;;;;;;-2.39;65.29;99940.25;84605;1331;22625;-80
2022/04/03 00:26:31;;;;;;;7.20;4.00;;;;;;;-2.42;65.36;99938.00;84695;1329;22591;-78
2022/04/03 00:28:40;;;;;;;8.50;4.70;;;;;;;-2.46;65.36;99936.79;84686;1330;22709;-78
2022/04/03 00:30:49;;;;;;;10.00;4.30;;;;;;;-2.50;65.52;99932.83;84676;1330;22716;-80
2022/04/03 00:32:57;;;;;;;8.30;5.40;;;;;;;-2.53;65.41;99937.06;84687;1330;25968;-82
2022/04/03 00:35:07;;;;;;;13.50;5.10;;;;;;;-2.56;65.53;99937.89;84667;1330;22580;-81
2022/04/03 00:37:16;;;;;;;9.00;5.10;;;;;;;-2.59;65.65;99937.36;84696;1330;24314;-78
2022/04/03 00:39:25;;;;;;;6.70;4.90;;;;;;;-2.62;65.66;99938.52;83972;1324;1003538;-78
2022/04/03 00:41:34;;;;;;;9.30;4.60;;;;;;;-2.64;65.83;99936.98;84583;1332;22608;-82
2022/04/03 00:43:43;;;;;;;7.60;4.10;;;;;;;-2.64;65.90;99935.94;84490;1332;25272;-82
2022/04/03 00:45:55;;;;;;;6.50;4.50;;;;;;;-2.65;66.18;99937.84;84637;1321;22837;-82
2022/04/03 00:48:04;;;;;;;5.30;3.40;;;;;;;-2.65;66.18;99941.25;84613;1331;22634;-81
2022/04/03 00:50:14;;;;;;;11.80;4.00;;;;;;;-2.65;66.31;99942.94;83852;1332;1075367;-82
2022/04/03 00:52:25;;;;;;;5.90;4.10;;;;;;;-2.66;66.20;99943.28;84636;1328;26037;-78
2022/04/03 00:54:33;;;;;;;8.00;4.20;;;;;;;-2.67;66.19;99942.59;84613;1328;22614;-77
2022/04/03 00:56:45;;;;;;;8.40;4.10;;;;;;;-2.68;66.24;99940.18;84664;1328;24367;-77
2022/04/03 00:58:57;;;;;;;6.70;4.50;;;;;;;-2.69;66.23;99940.86;84624;1329;22590;-78
2022/04/03 01:01:06;;;;;;;9.40;4.30;;;;;;;-2.72;66.30;99940.84;83952;1323;1003823;-80
2022/04/03 01:03:18;;;;;;;12.00;4.80;;;;;;;-2.74;66.25;99937.23;84638;1329;25291;-81
2022/04/03 01:05:27;;;;;;;9.50;4.30;;;;;;;-2.76;66.23;99940.98;84642;1329;25954;-81
2022/04/03 01:07:40;;;;;;;9.00;5.50;;;;;;;-2.78;66.22;99943.34;84627;1329;22606;-80
2022/04/03 01:09:53;;;;;;;9.20;4.50;;;;;;;-2.80;66.38;99940.59;84643;1326;22728;-80
2022/04/03 01:12:03;;;;;;;12.40;5.10;;;;;;;-2.83;66.46;99941.59;84599;1329;22603;-77
2022/04/03 01:14:12;;;;;;;7.40;4.60;;;;;;;-2.87;66.32;99944.46;84606;1330;22713;-78
2022/04/03 01:16:24;;;;;;;7.80;4.60;;;;;;;-2.90;66.32;99941.52;84665;1325;22630;-77
2022/04/03 01:18:34;;;;;;;7.30;4.50;;;;;;;-2.92;66.38;99941.15;84622;1326;22666;-78
2022/04/03 01:20:47;;;;;;;9.70;5.30;;;;;;;-2.94;66.40;99941.65;84609;1330;22606;-80
2022/04/03 01:22:56;;;;;;;8.40;4.70;;;;;;;-2.96;66.37;99942.33;83913;1329;1003046;-81
2022/04/03 01:25:10;;;;;;;10.60;5.50;;;;;;;-2.98;66.39;99943.67;84620;1327;22965;-81
2022/04/03 01:27:19;;;;;;;7.50;4.70;;;;;;;-2.98;66.50;99949.98;84632;1328;22615;-81
2022/04/03 01:29:31;;;;;;;9.90;5.20;;;;;;;-2.98;66.48;99944.52;84631;1329;22913;-81
2022/04/03 01:31:43;;;;;;;7.40;4.90;;;;;;;-2.97;66.62;99943.50;84632;1329;22608;-78
2022/04/03 01:33:56;;;;;;;8.70;5.90;;;;;;;-2.96;66.69;99943.52;84617;1326;22634;-78
2022/04/03 01:36:05;;;;;;;12.00;5.80;;;;;;;-2.95;66.66;99944.55;84603;1329;22739;-78
2022/04/03 01:38:14;;;;;;;10.20;5.00;;;;;;;-2.95;66.58;99946.60;84635;1329;22595;-78
2022/04/03 01:40:24;;;;;;;12.00;5.90;;;;;;;-2.97;66.58;99949.31;84624;1328;22741;-78
2022/04/03 01:42:33;;;;;;;7.80;5.20;;;;;;;-2.99;66.48;99954.23;84630;1328;22689;-82
2022/04/03 01:44:42;;;;;;;9.60;5.30;;;;;;;-3.02;66.44;99954.55;84636;1326;22641;-80
2022/04/03 01:46:51;;;;;;;11.20;5.50;;;;;;;-3.04;66.55;99956.23;84492;1332;22639;-80
2022/04/03 01:49:04;;;;;;;14.40;4.80;;;;;;;-3.06;66.48;99960.31;84648;1329;22609;-81
2022/04/03 01:51:16;;;;;;;8.50;4.70;;;;;;;-3.09;66.40;99959.77;84654;1329;25439;-81
2022/04/03 01:53:26;;;;;;;9.20;5.20;;;;;;;-3.13;66.58;99964.16;84616;1328;22706;-81
2022/04/03 01:55:40;;;;;;;9.30;5.30;;;;;;;-3.16;66.56;99963.27;84607;1332;22631;-80
2022/04/03 01:57:51;;;;;;;8.70;5.40;;;;;;;-3.19;66.65;99966.65;83924;1329;1003133;-81
2022/04/03 02:00:06;;;;;;;9.60;5.50;;;;;;;-3.23;66.70;99969.85;83920;1329;1002460;-80
2022/04/03 02:02:17;;;;;;;8.30;4.90;;;;;;;-3.27;66.67;99970.31;84629;1329;24328;-77
2022/04/03 02:04:26;;;;;;;9.10;5.20;;;;;;;-3.30;66.78;99971.14;83896;1329;1005759;-78
2022/04/03 02:06:38;;;;;;;9.00;5.10;;;;;;;-3.30;66.80;99973.01;84608;1329;23919;-81
2022/04/03 02:08:47;;;;;;;11.50;5.20;;;;;;;-3.32;66.63;99975.54;84632;1328;22604;-82
2022/04/03 02:10:57;;;;;;;7.50;4.80;;;;;;;-3.31;66.74;99980.51;84678;1328;22618;-78
2022/04/03 02:13:09;;;;;;;8.40;4.90;;;;;;;-3.29;66.62;99982.40;84634;1329;25448;-77
2022/04/03 02:15:18;;;;;;;8.80;4.50;;;;;;;-3.30;66.67;99980.69;84635;1329;22616;-78
2022/04/03 02:17:27;;;;;;;6.90;4.00;;;;;;;-3.30;66.62;99985.64;84648;1328;23009;-81
2022/04/03 02:19:39;;;;;;;11.30;4.50;;;;;;;-3.29;66.57;99986.66;84563;1329;23044;-81
2022/04/03 02:21:48;;;;;;;9.50;4.80;;;;;;;-3.30;66.71;99987.16;84610;1330;22619;-82
2022/04/03 02:24:00;;;;;;;10.30;4.80;;;;;;;-3.31;66.43;99985.95;84601;1325;22607;-81
2022/04/03 02:26:09;;;;;;;8.00;4.80;;;;;;;-3.34;66.53;99991.20;84635;1330;24235;-81
2022/04/03 02:28:21;;;;;;;8.00;4.70;;;;;;;-3.36;66.60;99991.70;84633;1328;22858;-81
2022/04/03 02:30:34;;;;;;;8.80;5.70;;;;;;;-3.38;66.36;99988.61;83937;1324;1003792;-81
2022/04/03 02:32:43;;;;;;;7.00;4.30;;;;;;;-3.41;66.44;99991.48;84618;1328;22787;-81
2022/04/03 02:34:54;;;;;;;7.70;4.40;;;;;;;-3.44;66.30;99992.45;83933;1331;1003400;-80
2022/04/03 02:37:04;;;;;;;8.50;4.50;;;;;;;-3.47;66.28;99993.09;84669;1326;25503;-81
2022/04/03 02:39:15;;;;;;;7.00;4.60;;;;;;;-3.49;66.22;99993.75;84629;1328;22614;-81
2022/04/03 02:41:25;;;;;;;6.70;4.80;;;;;;;-3.52;66.31;99995.59;84659;1328;22595;-81
2022/04/03 02:43:34;;;;;;;7.10;4.70;;;;;;;-3.55;66.11;99998.63;84613;1327;22633;-81
2022/04/03 02:45:43;;;;;;;7.30;5.20;;;;;;;-3.57;66.19;99999.80;84617;1328;22625;-79
2022/04/03 02:47:57;;;;;;;6.60;4.20;;;;;;;-3.60;66.24;99997.54;84570;1329;24290;-78
2022/04/03 02:50:07;;;;;;;10.10;4.30;;;;;;;-3.62;66.28;100000.75;84644;1328;24416;-79
2022/04/03 02:52:16;;;;;;;6.00;4.30;;;;;;;-3.63;66.24;100002.61;84667;1328;24189;-78
2022/04/03 02:54:26;;;;;;;7.10;3.70;;;;;;;-3.63;65.99;100001.25;83943;1328;1003378;-78
2022/04/03 02:56:35;;;;;;;7.40;3.90;;;;;;;-3.64;66.24;100002.27;84655;1329;25376;-81
2022/04/03 02:58:45;;;;;;;10.70;5.20;;;;;;;-3.64;66.21;99999.88;84625;1329;24398;-82
2022/04/03 03:00:54;;;;;;;8.50;4.60;;;;;;;-3.62;66.25;99996.14;83943;1329;1003478;-81
2022/04/03 03:03:06;;;;;;;7.60;4.10;;;;;;;-3.63;66.20;99994.27;84577;1330;25320;-81
2022/04/03 03:05:17;;;;;;;9.20;6.30;;;;;;;-3.64;66.10;99999.19;84612;1329;23965;-81
2022/04/03 03:07:37;;;;;;;7.80;4.90;;;;;;;-3.65;66.09;99997.81;84640;1329;22584;-81
2022/04/03 03:09:49;;;;;;;7.20;4.90;;;;;;;-3.67;66.19;100001.19;84542;1332;25435;-81
2022/04/03 03:12:02;;;;;;;7.80;4.20;;;;;;;-3.68;66.03;100004.26;84608;1329;22599;-81
2022/04/03 03:14:13;;;;;;;6.60;4.20;;;;;;;-3.70;66.05;100004.74;84573;1330;22586;-81
2022/04/03 03:16:23;;;;;;;9.10;3.80;;;;;;;-3.73;65.99;100007.77;84654;1328;22589;-80
2022/04/03 03:18:34;;;;;;;8.20;4.00;;;;;;;-3.75;65.95;100007.39;84605;1327;22647;-80
2022/04/03 03:20:44;;;;;;;7.60;4.30;;;;;;;-3.78;65.68;100009.05;84618;1329;22613;-77
2022/04/03 03:22:56;;;;;;;7.90;4.50;;;;;;;-3.82;65.76;100007.46;84609;1328;22600;-77
2022/04/03 03:25:07;;;;;;;7.90;4.10;;;;;;;-3.87;65.92;100009.77;84615;1326;22815;-77
2022/04/03 03:27:18;;;;;;;;;;;;;;;-3.91;65.91;100014.83;84618;1331;22822;-77
2022/04/03 03:29:27;;;;;;;5.60;3.80;;;;;;;-3.97;66.10;100013.73;83932;1332;1002926;-77
2022/04/03 03:31:39;;;;;;;5.60;3.10;;;;;;;-3.99;66.09;100014.04;84580;1327;22613;-78
2022/04/03 03:33:48;;;;;;;6.30;4.40;;;;;;;-4.02;65.98;100014.33;84595;1330;22600;-77
2022/04/03 03:36:00;;;;;;;10.80;5.10;;;;;;;-4.05;66.08;100014.28;84561;1331;22604;-80
2022/04/03 03:38:10;;;;;;;8.70;5.10;;;;;;;-4.08;66.13;100014.56;84546;1326;26537;-81
2022/04/03 03:40:20;;;;;;;7.50;4.20;;;;;;;-4.11;66.29;100019.64;84583;1330;22613;-81
2022/04/03 03:42:29;;;;;;;11.30;5.00;;;;;;;-4.14;66.28;100024.70;83855;1334;1002639;-81
2022/04/03 03:44:42;;;;;;;5.60;4.40;;;;;;;-4.16;66.27;100025.19;84620;1328;25455;-81
2022/04/03 03:46:51;;;;;;;11.80;4.50;;;;;;;-4.17;66.34;100027.55;84634;1329;22623;-81
2022/04/03 03:48:59;;;;;;;7.40;4.20;;;;;;;-4.18;66.35;100029.77;84642;1332;24420;-81
2022/04/03 03:51:08;;;;;;;6.70;4.30;;;;;;;-4.17;66.38;100030.45;83924;1328;1003051;-80
2022/04/03 03:53:18;;;;;;;5.80;4.10;;;;;;;-4.17;66.43;100031.99;84569;1332;22611;-81
2022/04/03 03:55:26;;;;;;;8.30;4.70;;;;;;;-4.13;66.47;100037.85;84688;1324;23211;-80
2022/04/03 03:57:39;;;;;;;7.70;4.60;;;;;;;-4.11;66.54;100037.35;84689;1327;24403;-81
2022/04/03 03:59:49;;;;;;;8.00;4.30;;;;;;;-4.11;66.48;100039.58;84667;1327;22658;-81
2022/04/03 04:01:58;;;;;;;10.00;4.90;;;;;;;-4.11;66.47;100040.92;83992;1328;1002881;-80
2022/04/03 04:04:10;;;;;;;11.30;5.10;;;;;;;-4.12;66.44;100040.08;84691;1328;22801;-81
2022/04/03 04:06:20;;;;;;;10.30;5.40;;;;;;;-4.12;66.31;100045.52;84699;1327;23076;-76
2022/04/03 04:08:29;;;;;;;8.20;5.20;;;;;;;-4.13;66.25;100047.55;84694;1321;24315;-77
2022/04/03 04:10:40;;;;;;;7.30;4.70;;;;;;;-4.14;66.18;100050.77;83883;1330;1003879;-80
2022/04/03 04:12:53;;;;;;;9.40;5.70;;;;;;;-4.17;66.11;100052.58;84694;1328;22625;-80
2022/04/03 04:15:05;;;;;;;9.40;4.70;;;;;;;-4.20;66.25;100056.13;84602;1328;25312;-81
2022/04/03 04:17:14;;;;;;;6.80;4.80;;;;;;;-4.21;66.40;100054.06;83989;1325;1003382;-80
2022/04/03 04:19:26;;;;;;;6.90;4.70;;;;;;;-4.22;66.37;100058.14;84590;1328;22903;-80
2022/04/03 04:21:38;;;;;;;6.90;4.60;;;;;;;-4.23;66.44;100059.81;84637;1329;22964;-76
2022/04/03 04:23:47;;;;;;;12.60;6.90;;;;;;;-4.23;66.25;100061.18;84733;1321;22662;-80
2022/04/03 04:25:59;;;;;;;13.40;5.70;;;;;;;-4.24;66.42;100062.20;84649;1329;22583;-75
2022/04/03 04:28:09;;;;;;;7.10;4.90;;;;;;;-4.24;66.56;100064.05;83925;1328;1002940;-77
2022/04/03 04:30:22;;;;;;;9.10;5.00;;;;;;;-4.23;66.54;100065.43;84621;1325;22608;-77
2022/04/03 04:32:34;;;;;;;7.40;4.30;;;;;;;-4.22;66.51;100068.02;84622;1329;22573;-81
2022/04/03 04:34:47;;;;;;;8.00;4.90;;;;;;;-4.19;66.48;100071.48;84612;1323;24246;-81
2022/04/03 04:36:56;;;;;;;9.50;4.30;;;;;;;-4.13;66.30;100071.91;84602;1324;22661;-80
2022/04/03 04:39:06;;;;;;;8.50;5.00;;;;;;;-4.08;66.26;100071.48;84620;1329;22747;-80
2022/04/03 04:41:18;;;;;;;9.00;4.80;;;;;;;-4.00;66.26;100075.85;84635;1329;24343;-79
2022/04/03 04:43:28;;;;;;;6.10;5.20;;;;;;;-3.92;65.99;100076.67;84610;1331;25275;-79
2022/04/03 04:45:36;;;;;;;10.50;5.70;;;;;;;-3.82;65.90;100079.89;84700;1329;24216;-79
2022/04/03 04:47:49;;;;;;;7.90;4.80;;;;;;;-3.71;65.76;100083.48;84701;1328;25315;-81
2022/04/03 04:50:01;;;;;;;8.00;5.00;;;;;;;-3.59;65.93;100080.92;84618;1329;22688;-79
2022/04/03 04:52:11;;;;;;;8.50;4.80;;;;;;;-3.45;65.48;100081.11;84686;1328;22602;-80
2022/04/03 04:54:20;;;;;;;8.10;4.90;;;;;;;-3.29;65.38;100079.29;84602;1329;22585;-81
2022/04/03 04:56:33;;;;;;;8.80;5.00;;;;;;;-3.14;65.29;100084.77;83983;1329;1003173;-80
2022/04/03 04:58:43;;;;;;;8.80;5.00;;;;;;;-2.97;65.13;100088.73;84711;1328;23801;-80
2022/04/03 05:00:53;;;;;;;11.20;4.40;;;;;;;-2.80;64.63;100093.54;84586;1330;22586;-81
2022/04/03 05:03:02;;;;;;;6.70;4.10;;;;;;;-2.63;64.00;100092.54;84670;1328;22606;-79
2022/04/03 05:05:14;;;;;;;8.50;5.00;;;;;;;-2.44;64.08;100093.77;84702;1328;22608;-80
2022/04/03 05:07:24;;;;;;;9.40;4.40;;;;;;;-2.21;63.87;100098.77;84619;1329;22611;-80
2022/04/03 05:09:36;;;;;;;7.00;4.20;;;;;;;-2.03;63.13;100103.88;84696;1327;23046;-80
2022/04/03 05:11:49;;;;;;;8.90;5.20;;;;;;;-1.80;63.26;100105.78;84658;1329;24319;-77
2022/04/03 05:14:00;;;;;;;9.60;4.90;;;;;;;-1.53;62.20;100108.71;84676;1328;25323;-76
2022/04/03 05:16:10;;;;;;;9.50;5.20;;;;;;;-1.23;62.05;100112.30;84719;1328;22538;-77
2022/04/03 05:18:19;;;;;;;8.00;5.50;;;;;;;-0.86;61.37;100114.56;84696;1328;22606;-76
2022/04/03 05:20:29;;;;;;;8.50;5.60;;;;;;;-0.36;61.62;100113.51;84705;1328;23912;-77
2022/04/03 05:22:38;;;;;;;13.00;5.30;;;;;;;0.24;60.99;100111.17;84688;1330;22599;-80
2022/04/03 05:24:47;;;;;;;9.30;6.10;;;;;;;0.76;59.29;100112.65;84670;1328;24109;-78
2022/04/03 05:26:56;;;;;;;7.70;5.20;;;;;;;1.13;57.71;100117.00;84707;1329;25641;-77
2022/04/03 05:29:07;;;;;;;9.60;6.20;;;;;;;1.43;56.58;100118.42;84688;1328;22569;-77
2022/04/03 05:31:17;;;;;;;9.20;5.50;;;;;;;1.68;55.77;100118.11;84689;1320;22774;-77
2022/04/03 05:33:26;;;;;;;6.40;5.10;;;;;;;1.78;54.27;100120.63;84700;1328;25441;-78
2022/04/03 05:35:35;;;;;;;9.00;4.80;;;;;;;1.73;53.26;100123.92;84673;1324;22606;-77
2022/04/03 05:37:44;;;;;;;7.00;5.20;;;;;;;1.84;52.88;100122.48;84694;1329;23978;-78
2022/04/03 05:39:53;;;;;;;9.00;5.10;;;;;;;2.17;52.99;100120.00;84714;1329;22619;-77
2022/04/03 05:42:03;;;;;;;6.80;4.60;;;;;;;2.51;51.89;100126.09;84724;1329;22609;-80
2022/04/03 05:44:13;;;;;;;7.80;4.50;;;;;;;2.78;51.22;100128.41;84703;1329;22773;-79
2022/04/03 05:46:22;;;;;;;5.90;4.60;;;;;;;2.90;50.18;100130.86;84716;1328;22600;-77
2022/04/03 05:48:31;;;;;;;10.00;4.80;;;;;;;2.89;49.95;100129.16;84681;1329;22881;-77
2022/04/03 05:50:40;;;;;;;6.10;4.80;;;;;;;2.85;48.85;100130.24;84709;1328;22761;-78
2022/04/03 05:52:50;;;;;;;5.00;4.50;;;;;;;2.69;49.11;100131.60;82571;1328;1003253;-80
2022/04/03 05:54:59;;;;;;;5.70;4.30;;;;;;;2.60;49.35;100136.00;84688;1330;22622;-79
2022/04/03 05:57:10;;;;;;;10.10;5.70;;;;;;;2.62;49.30;100136.67;84717;1328;25299;-78
2022/04/03 05:59:20;;;;;;;6.70;4.80;;;;;;;2.83;49.37;100141.10;84690;1327;24180;-80
2022/04/03 06:01:28;;;;;;;7.40;5.20;;;;;;;3.17;49.31;100140.39;84716;1327;23971;-78
2022/04/03 06:03:38;;;;;;;6.30;4.90;;;;;;;3.60;49.25;100141.07;84635;1329;25295;-78
2022/04/03 06:05:51;;;;;;;9.90;5.00;;;;;;;3.99;47.74;100139.50;84659;1330;22608;-81
2022/04/03 06:08:02;;;;;;;7.20;5.30;;;;;;;4.18;47.23;100140.06;84619;1329;22627;-81
2022/04/03 06:10:13;;;;;;;7.80;5.30;;;;;;;4.47;47.07;100142.52;83205;1329;1003397;-81
2022/04/03 06:12:22;;;;;;;7.20;4.60;;;;;;;4.74;46.08;100147.25;84616;1325;24260;-81
2022/04/03 06:14:31;;;;;;;5.00;4.50;;;;;;;4.96;45.44;100146.84;84611;1328;24105;-80
2022/04/03 06:16:43;;;;;;;8.50;4.90;;;;;;;5.16;44.88;100151.47;84641;1329;25534;-77
2022/04/03 06:18:55;;;;;;;4.70;4.10;;;;;;;5.25;43.94;100152.35;84623;1329;22584;-78
2022/04/03 06:21:04;;;;;;;6.20;4.40;;;;;;;5.37;43.86;100155.38;84625;1329;22630;-77
2022/04/03 06:23:17;;;;;;;5.30;3.60;;;;;;;5.58;42.48;100151.84;84710;1324;22590;-78
2022/04/03 06:25:25;;;;;;;4.20;3.50;;;;;;;5.68;42.15;100154.05;84660;1329;25439;-79
2022/04/03 06:27:35;;;;;;;7.50;3.80;;;;;;;5.91;41.94;100154.44;84669;1330;22836;-81
2022/04/03 06:29:44;;;;;;;6.40;3.40;;;;;;;6.15;41.03;100152.34;84716;1329;23916;-81
2022/04/03 06:31:53;;;;;;;6.20;4.30;;;;;;;6.32;41.03;100151.41;84688;1329;22868;-80
2022/04/03 06:34:05;;;;;;;3.60;3.20;;;;;;;6.69;40.72;100153.44;84682;1329;24271;-80
2022/04/03 06:36:14;;;;;;;5.30;3.80;;;;;;;7.14;40.14;100154.16;84709;1329;22593;-80
2022/04/03 06:38:23;;;;;;;3.50;3.00;;;;;;;7.64;39.32;100151.35;84697;1328;22595;-81
2022/04/03 06:40:35;;;;;;;3.40;3.00;;;;;;;8.08;37.35;100148.98;84693;1331;24190;-74
2022/04/03 06:42:47;;;;;;;4.30;3.40;;;;;;;8.35;37.26;100150.89;84716;1323;22711;-75
2022/04/03 06:44:59;;;;;;;4.70;3.40;;;;;;;8.77;36.95;100153.20;84710;1324;24976;-75
2022/04/03 06:47:09;;;;;;;3.20;2.70;;;;;;;9.21;36.06;100155.31;84694;1328;22588;-74
2022/04/03 06:49:20;;;;;;;5.60;3.50;;;;;;;9.56;35.27;100159.59;84693;1320;22581;-73
2022/04/03 06:51:29;;;;;;;3.60;2.80;;;;;;;9.81;34.89;100160.05;84596;1329;22603;-74
2022/04/03 06:53:38;;;;;;;3.20;2.70;;;;;;;10.19;34.92;100160.81;84684;1331;23917;-75
2022/04/03 06:55:48;;;;;;;3.80;2.90;;;;;;;10.57;33.69;100161.75;84716;1327;24197;-74
2022/04/03 06:57:55;;;;;;;;;;;;;;;10.82;33.05;100162.98;84695;1329;25444;-75
2022/04/03 07:00:11;;;;;;;2.80;2.40;;;;;;;11.13;33.40;100158.15;84616;1329;25354;-75
2022/04/03 07:02:20;;;;;;;4.10;2.80;;;;;;;11.53;32.40;100159.69;84705;1328;22593;-79
2022/04/03 07:04:29;;;;;;;3.90;3.30;;;;;;;11.90;31.23;100160.29;84672;1329;23040;-78
2022/04/03 07:06:41;;;;;;;3.70;3.00;;;;;;;12.11;30.89;100162.27;84680;1331;22596;-79
2022/04/03 07:08:53;;;;;;;3.30;2.60;;;;;;;12.38;30.46;100157.31;84702;1329;24329;-79
2022/04/03 07:11:05;;;;;;;3.70;3.30;;;;;;;12.53;30.14;100164.42;84763;1330;22683;-81
2022/04/03 07:13:17;;;;;;;4.20;3.40;;;;;;;12.76;29.85;100167.45;84726;1329;22607;-82
2022/04/03 07:15:29;;;;;;;4.10;3.20;;;;;;;13.01;28.99;100164.98;84680;1324;22827;-80
2022/04/03 07:17:40;;;;;;;3.80;2.70;;;;;;;13.26;28.96;100164.41;84745;1327;25444;-83
2022/04/03 07:19:52;;;;;;;5.90;2.70;;;;;;;13.47;28.14;100168.05;84731;1329;24234;-82
2022/04/03 07:22:06;;;;;;;4.30;2.80;;;;;;;13.58;28.57;100169.21;84706;1327;23127;-82
2022/04/03 07:24:17;;;;;;;3.90;2.90;;;;;;;13.75;27.83;100169.54;84726;1328;22823;-83
2022/04/03 07:26:27;;;;;;;4.50;2.70;;;;;;;13.86;26.98;100173.64;84709;1328;23926;-76
2022/04/03 07:28:40;;;;;;;3.10;2.60;;;;;;;13.92;26.90;100173.66;84715;1325;24240;-75
2022/04/03 07:30:51;;;;;;;3.30;2.80;;;;;;;14.17;27.21;100171.95;84737;1330;22590;-82
2022/04/03 07:33:00;;;;;;;2.60;2.40;;;;;;;14.46;26.90;100170.84;84754;1328;24234;-83
2022/04/03 07:35:11;;;;;;;3.10;2.50;;;;;;;14.79;26.36;100172.42;84720;1328;22815;-82
2022/04/03 07:37:23;;;;;;;3.30;2.50;;;;;;;15.09;25.90;100177.16;84723;1330;22590;-83
2022/04/03 07:39:36;;;;;;;2.40;2.20;;;;;;;15.27;24.71;100174.66;84732;1329;22719;-82
2022/04/03 07:41:46;;;;;;;3.00;2.10;;;;;;;15.37;25.10;100177.05;84694;1332;25288;-81
2022/04/03 07:43:55;;;;;;;4.40;2.70;;;;;;;15.53;24.18;100176.96;84677;1329;24279;-81
2022/04/03 07:46:04;;;;;;;3.30;2.10;;;;;;;15.56;24.58;100182.21;84667;1329;22878;-76
2022/04/03 07:48:13;;;;;;;3.00;2.40;;;;;;;15.60;24.32;100182.70;84699;1323;22628;-82
2022/04/03 07:50:25;;;;;;;3.30;3.00;;;;;;;15.59;24.18;100183.23;84670;1328;24056;-80
2022/04/03 07:52:37;;;;;;;3.70;2.20;;;;;;;15.49;24.09;100181.58;84706;1331;22841;-76
2022/04/03 07:54:46;;;;;;;2.70;2.30;;;;;;;15.41;23.83;100186.30;84694;1325;24267;-76
2022/04/03 07:56:55;;;;;;;2.50;2.30;;;;;;;15.21;24.05;100187.30;84676;1329;22829;-84
2022/04/03 07:59:06;;;;;;;2.30;2.10;;;;;;;15.12;24.14;100184.92;84641;1333;22752;-84
2022/04/03 08:01:14;;;;;;;2.20;2.00;;;;;;;15.16;24.08;100185.72;84732;1327;22578;-75
2022/04/03 08:03:23;;;;;;;2.80;2.30;;;;;;;15.20;24.06;100188.08;84625;1332;22790;-77
2022/04/03 08:05:34;;;;;;;4.30;2.30;;;;;;;15.44;23.72;100189.60;84634;1330;22762;-82
2022/04/03 08:07:45;;;;;;;2.40;2.20;;;;;;;15.66;22.83;100192.88;84614;1325;22871;-86
2022/04/03 08:09:54;;;;;;;4.20;2.50;;;;;;;15.67;22.91;100192.84;84706;1330;24255;-82
2022/04/03 08:12:04;;;;;;;2.90;2.10;;;;;;;15.81;22.49;100191.10;84746;1331;22589;-82
2022/04/03 08:14:12;;;;;;;;;;;;;;;15.85;22.46;100191.52;84697;1331;22951;-80
2022/04/03 08:16:21;;;;;;;2.90;2.30;;;;;;;15.91;22.94;100194.81;84701;1330;22599;-79
2022/04/03 08:18:48;;;;;;;2.20;1.90;;;;;;;16.37;22.47;100188.71;84682;1331;22562;-84
2022/04/03 08:21:24;;;;;;;2.90;2.10;;;;;;;16.63;21.57;100186.67;84717;1331;22589;-77
2022/04/03 08:23:40;;;;;;;3.40;1.60;;;;;;;16.85;22.21;100189.14;84635;1329;25259;-76
2022/04/03 08:25:50;;;;;;;3.60;2.70;;;;;;;17.28;21.18;100190.27;84731;1327;22593;-75
2022/04/03 08:28:00;;;;;;;2.80;2.60;;;;;;;17.56;20.81;100193.64;84626;1330;25300;-76
2022/04/03 08:30:15;;;;;;;2.50;2.20;;;;;;;17.60;20.52;100191.01;84614;1328;23018;-76
2022/04/03 08:32:27;;;;;;;2.70;2.20;;;;;;;17.52;20.44;100192.48;84634;1329;23993;-83
2022/04/03 08:34:39;;;;;;;2.40;1.90;;;;;;;17.44;20.38;100192.65;84632;1329;23036;-86
2022/04/03 08:36:48;;;;;;;3.70;2.50;;;;;;;17.55;20.82;100193.67;84650;1330;22587;-77
2022/04/03 08:38:57;;;;;;;5.30;2.50;;;;;;;17.82;20.53;100193.34;84628;1330;24125;-76
2022/04/03 08:41:09;;;;;;;3.00;2.70;;;;;;;17.96;20.59;100194.86;84671;1332;22580;-76
2022/04/03 08:43:19;;;;;;;2.00;1.90;;;;;;;18.18;19.95;100196.08;84612;1333;22620;-76
2022/04/03 08:45:31;;;;;;;2.20;2.00;;;;;;;18.23;19.71;100194.66;84612;1326;23966;-83
2022/04/03 08:47:43;;;;;;;3.50;2.30;;;;;;;18.29;19.49;100197.23;84647;1332;22596;-76
2022/04/03 08:49:53;;;;;;;2.50;2.20;;;;;;;18.48;19.53;100197.27;84364;1327;545980;-74
2022/04/03 08:52:09;;;;;;;2.30;2.10;;;;;;;18.56;19.39;100196.14;84739;1330;23911;-75
2022/04/03 08:54:26;;;;;;;;;;;;;;;18.44;19.72;100199.85;84711;1330;22583;-76
2022/04/03 08:56:37;;;;;;;2.80;2.40;;;;;;;18.36;19.79;100202.20;84728;1327;22886;-76
2022/04/03 08:58:47;;;;;;;2.70;2.40;;;;;;;18.52;19.80;100193.42;84728;1327;22616;-76
2022/04/03 09:01:02;;;;;;;3.10;2.80;;;;;;;18.60;19.51;100197.45;84701;1327;24359;-86
2022/04/03 09:03:14;;;;;;;2.50;2.20;;;;;;;18.59;19.56;100198.20;84745;1327;22616;-83
2022/04/03 09:05:35;;;;;;;4.40;2.00;;;;;;;18.69;19.66;100196.11;84741;1327;22566;-81
2022/04/03 09:07:44;;;;;;;2.10;1.90;;;;;;;18.53;18.99;100196.17;84758;1328;22629;-75
2022/04/03 09:10:07;;;;;;;3.40;2.30;;;;;;;17.61;19.49;100200.98;84695;1331;22583;-77
2022/04/03 09:12:20;;;;;;;3.50;2.90;;;;;;;16.98;20.46;100199.52;84666;1329;22755;-77
2022/04/03 09:14:30;;;;;;;3.80;2.10;;;;;;;16.26;20.48;100200.71;84611;1332;22601;-76
2022/04/03 09:16:45;;;;;;;2.50;2.30;;;;;;;15.30;21.20;100209.46;84642;1330;22614;-77
2022/04/03 09:18:54;;;;;;;2.20;2.00;;;;;;;14.47;22.01;100209.21;84693;1331;22727;-76
2022/04/03 09:21:02;;;;;;;;;;;;;;;14.53;22.76;100207.65;84738;1327;24044;-76
2022/04/03 09:23:11;;;;;;;3.30;2.00;;;;;;;14.97;22.37;100205.64;84738;1327;22594;-76
2022/04/03 09:25:29;;;;;;;2.30;2.00;;;;;;;15.69;22.36;100205.66;84741;1327;22698;-77
2022/04/03 09:27:48;;;;;;;2.70;2.10;;;;;;;16.39;21.44;100196.70;84681;1330;24721;-76
2022/04/03 09:30:07;;;;;;;;;;;;;;;16.01;21.15;100204.39;84748;1327;22571;-76
2022/04/03 09:32:15;;;;;;;3.30;1.80;;;;;;;15.03;21.69;100212.64;84708;1328;25282;-77
2022/04/03 09:34:29;;;;;;;3.90;2.00;;;;;;;14.37;22.29;100213.10;84733;1325;22587;-76
2022/04/03 09:36:41;;;;;;;1.90;1.80;;;;;;;13.82;23.06;100216.46;84749;1327;23943;-85
2022/04/03 09:38:53;;;;;;;2.50;2.00;;;;;;;14.29;23.40;100211.98;84736;1327;22625;-85
2022/04/03 09:41:06;;;;;;;2.70;2.40;;;;;;;14.75;22.93;100209.56;84710;1328;25448;-85
2022/04/03 09:43:23;;;;;;;3.90;2.20;;;;;;;15.25;22.78;100211.52;84718;1330;22586;-87
2022/04/03 09:45:32;;;;;;;1.80;1.70;;;;;;;15.55;22.32;100211.14;84740;1328;22593;-84
2022/04/03 09:47:44;;;;;;;3.30;2.50;;;;;;;15.85;22.68;100210.89;84732;1327;22638;-85
2022/04/03 09:50:00;;;;;;;2.10;1.70;;;;;;;16.06;21.86;100208.30;84716;1330;22833;-85
2022/04/03 09:52:12;;;;;;;2.70;2.10;;;;;;;15.44;21.75;100210.34;84740;1330;24959;-84
2022/04/03 09:54:23;;;;;;;2.30;2.10;;;;;;;14.58;22.11;100218.58;84731;1327;25326;-86
2022/04/03 09:56:34;;;;;;;3.00;1.90;;;;;;;13.68;22.94;100224.23;84714;1321;22751;-76
2022/04/03 09:59:00;;;;;;;2.60;2.10;;;;;;;13.00;23.63;100225.30;84717;1330;23793;-78
2022/04/03 10:01:27;;;;;;;2.90;2.00;;;;;;;12.62;25.03;100219.64;84739;1328;22670;-76
2022/04/03 10:03:36;;;;;;;5.30;2.60;;;;;;;12.52;24.62;100226.43;84728;1330;22642;-76
2022/04/03 10:05:48;;;;;;;2.30;2.10;;;;;;;12.05;24.23;100232.50;84724;1331;23959;-86
2022/04/03 10:08:02;;;;;;;2.10;1.90;;;;;;;11.79;24.74;100232.97;84705;1327;22741;-86
2022/04/03 10:10:15;;;;;;;1.60;1.40;;;;;;;11.68;24.82;100229.42;84746;1325;24322;-88
2022/04/03 10:12:31;;;;;;;2.80;2.50;;;;;;;11.46;24.68;100226.72;84691;1327;22602;-86